Latest Weather Observations for East Sale

IDV60801

Issued at 10:02 pm EST Thursday 28 July 2016 (issued every 30 minutes, with the page automatically refreshed every 10 minutes)

About weather observations | Map of weather stations | Latest weather observations for VIC | Other Formats
Station Details ID: 085072 Name: EAST SALE AIRPORT Lat: -38.12 Lon: 147.13 Height: 4.6 m
Data from the previous 72 hours. | See also: Recent months at East Sale
Date/Time
EST
Temp
°C
App
Temp
°C
Dew
Point
°C
Rel
Hum
%
Delta-T
°C
Wind Press
QNH
hPa
Press
MSL
hPa
Rain since
9am
mm
Dir  Spd
km/h
Gust
km/h
Spd
kts
Gust
kts
28/09:30pm 10.9 5.1 4.4 64 2.9 NW 24 30 13 16 1021.1 1021.1 0.0
28/09:00pm 10.6 4.8 4.3 65 2.8 NW 24 33 13 18 1021.4 1021.4 0.0
28/08:30pm 10.1 4.7 4.5 68 2.5 NW 22 26 12 14 1021.5 1021.5 0.0
28/08:00pm 10.3 5.9 4.7 68 2.5 NW 17 22 9 12 1021.7 1021.7 0.0
28/07:30pm 10.5 6.4 4.6 67 2.6 NW 15 19 8 10 1021.5 1021.5 0.0
28/07:00pm 10.9 7.6 4.4 64 2.9 WNW 11 13 6 7 1021.6 1021.6 0.0
28/06:30pm 10.3 5.2 4.2 66 2.7 NW 20 24 11 13 1020.9 1020.9 0.0
28/06:00pm 10.9 5.5 4.6 65 2.8 NW 22 26 12 14 1020.6 1020.6 0.0
28/05:30pm 12.8 7.0 4.5 57 3.8 NW 24 30 13 16 1020.5 1020.5 0.0
28/05:00pm 13.2 6.4 4.9 57 3.8 WNW 30 39 16 21 1020.3 1020.3 0.0
28/04:30pm 13.9 6.2 5.3 56 4.0 WNW 35 44 19 24 1020.0 1020.0 0.0
28/04:00pm 14.5 6.3 5.0 53 4.4 WNW 37 54 20 29 1020.1 1020.1 0.0
28/03:30pm 15.1 6.8 5.9 54 4.4 WNW 39 54 21 29 1020.1 1020.1 0.0
28/03:00pm 14.7 5.6 5.8 55 4.2 W 43 59 23 32 1019.9 1019.9 0.0
28/02:39pm 14.8 4.3 5.6 54 4.4 W 50 69 27 37 1019.5 1019.5 0.0
28/02:30pm 14.8 5.4 5.6 54 4.4 W 44 56 24 30 1019.6 1019.6 0.0
28/02:00pm 15.3 5.7 6.3 55 4.3 WNW 46 65 25 35 1019.5 1019.5 0.0
28/01:32pm 14.9 4.9 6.0 55 4.3 WNW 48 67 26 36 1019.5 1019.5 0.0
28/01:30pm 14.9 4.9 6.0 55 4.3 WNW 48 63 26 34 1019.5 1019.5 0.0
28/01:00pm 15.4 5.8 6.2 54 4.4 WNW 46 61 25 33 1019.6 1019.6 0.0
28/12:30pm 14.4 5.2 6.5 59 3.8 W 44 63 24 34 1019.9 1019.9 0.0
28/12:23pm 14.5 4.5 6.1 57 4.0 W 48 67 26 36 1020.0 1020.0 0.0
28/12:00pm 14.6 6.1 6.9 60 3.7 W 41 52 22 28 1020.2 1020.2 0.0
28/11:30am 13.9 4.7 6.5 61 3.6 W 44 59 24 32 1020.8 1020.8 0.0
28/11:20am 14.1 6.2 6.2 59 3.8 W 37 57 20 31 1020.9 1020.9 0.0
28/11:00am 13.9 5.6 6.0 59 3.7 W 39 54 21 29 1021.3 1021.3 0.0
28/10:41am 14.2 5.2 6.3 59 3.8 WNW 43 61 23 33 1021.3 1021.3 0.0
28/10:30am 14.0 6.1 6.1 59 3.8 WNW 37 50 20 27 1021.2 1021.2 0.0
28/10:00am 13.5 6.0 6.4 62 3.4 WNW 35 48 19 26 1021.1 1021.1 0.0
28/09:30am 12.9 5.4 6.3 64 3.1 WNW 35 57 19 31 1021.4 1021.4 0.0
28/09:24am 13.4 7.9 7.4 67 2.9 WNW 26 48 14 26 1021.4 1021.4 0.0
28/09:00am 12.0 6.6 6.5 69 2.6 W 24 35 13 19 1021.5 1021.5 0.0
28/08:30am 11.2 6.2 6.3 72 2.3 W 22 30 12 16 1021.5 1021.5 0.0
28/08:00am 10.7 6.0 5.9 72 2.2 W 20 26 11 14 1021.5 1021.5 0.0
28/07:30am 10.2 6.1 6.0 75 1.9 WNW 17 22 9 12 1021.3 1021.3 0.0
28/07:00am 10.3 5.8 6.1 75 1.9 W 19 26 10 14 1021.0 1021.0 0.0
28/06:30am 10.1 5.6 6.1 76 1.9 W 19 26 10 14 1020.6 1020.6 0.0
28/06:00am 10.1 4.6 6.1 76 1.8 W 24 35 13 19 1020.3 1020.3 0.0
28/05:30am 10.1 5.4 6.1 76 1.9 WNW 20 26 11 14 1020.0 1020.0 0.0
28/05:00am 10.1 5.9 5.9 75 1.9 W 17 20 9 11 1019.9 1019.9 0.0
28/04:30am 9.6 4.8 5.8 77 1.7 W 20 24 11 13 1019.8 1019.8 0.0
28/04:00am 10.1 5.4 5.9 75 1.9 W 20 30 11 16 1020.0 1020.0 0.0
28/03:30am 10.1 5.3 5.7 74 2.0 W 20 28 11 15 1019.7 1019.7 0.0
28/03:00am 9.9 2.3 5.7 75 1.9 WNW 35 43 19 23 1019.4 1019.4 0.0
28/02:30am 9.3 2.2 5.5 77 1.7 WNW 32 39 17 21 1019.3 1019.3 0.0
28/02:00am 9.0 4.1 5.2 77 1.7 W 20 28 11 15 1019.5 1019.5 0.0
28/01:30am 9.2 2.8 5.0 75 1.9 WNW 28 39 15 21 1019.2 1019.2 0.0
28/01:00am 9.0 2.1 4.8 75 1.9 W 30 41 16 22 1019.3 1019.3 0.0
28/12:30am 9.1 2.6 4.9 75 1.9 W 28 37 15 20 1019.4 1019.4 0.0
28/12:00am 8.9 3.9 4.7 75 1.9 W 20 30 11 16 1019.4 1019.4 0.0
 
Date/Time
EST
Temp
°C
App
Temp
°C
Dew
Point
°C
Rel
Hum
%
Delta-T
°C
Wind Press
QNH
hPa
Press
MSL
hPa
Rain since
9am
mm
Dir  Spd
km/h
Gust
km/h
Spd
kts
Gust
kts
27/11:30pm 9.2 3.1 4.6 73 2.0 WNW 26 37 14 20 1019.4 1019.4 0.0
27/11:00pm 9.3 2.8 4.5 72 2.1 WNW 28 35 15 19 1019.5 1019.5 0.0
27/10:30pm 9.4 2.5 4.4 71 2.2 WNW 30 41 16 22 1019.4 1019.4 0.0
27/10:00pm 9.4 2.1 4.6 72 2.1 WNW 32 43 17 23 1019.6 1019.6 0.0
27/09:30pm 9.1 2.5 4.3 72 2.1 WNW 28 35 15 19 1019.8 1019.8 0.0
27/09:00pm 8.9 2.3 4.3 73 2.0 WNW 28 33 15 18 1019.8 1019.8 0.0
27/08:30pm 8.9 2.2 3.9 71 2.2 WNW 28 39 15 21 1019.5 1019.5 0.0
27/08:00pm 8.7 2.0 3.9 72 2.1 WNW 28 35 15 19 1019.2 1019.2 0.0
27/07:30pm 8.8 2.9 3.8 71 2.2 W 24 33 13 18 1019.1 1019.1 0.0
27/07:00pm 8.8 2.5 3.8 71 2.2 W 26 35 14 19 1018.4 1018.4 0.0
27/06:30pm 8.7 2.1 4.1 73 2.0 WNW 28 33 15 18 1017.3 1017.3 0.0
27/06:00pm 8.7 1.2 3.7 71 2.2 W 32 46 17 25 1017.5 1017.5 0.0
27/05:30pm 9.1 0.7 3.7 69 2.3 W 37 52 20 28 1016.8 1016.8 0.0
27/05:05pm 9.4 1.5 4.6 72 2.1 W 35 54 19 29 1016.5 1016.5 0.0
27/05:00pm 9.5 0.9 4.9 73 2.1 W 39 54 21 29 1016.4 1016.4 0.0
27/04:35pm 10.1 2.0 5.3 72 2.2 W 37 56 20 30 1016.0 1016.0 0.0
27/04:30pm 10.1 1.6 5.1 71 2.3 W 39 56 21 30 1015.9 1015.9 0.0
27/04:02pm 10.7 3.4 5.3 69 2.5 W 33 52 18 28 1015.7 1015.7 0.0
27/04:00pm 10.8 3.2 5.8 71 2.3 W 35 52 19 28 1015.7 1015.7 0.0
27/03:33pm 10.6 3.8 5.2 69 2.5 W 30 56 16 30 1015.1 1015.1 0.0
27/03:30pm 10.7 4.6 5.0 68 2.6 W 26 39 14 21 1015.1 1015.1 0.0
27/03:13pm 10.5 1.9 4.9 68 2.5 W 39 57 21 31 1015.1 1015.1 0.0
27/03:00pm 11.3 3.1 4.7 64 3.0 W 37 50 20 27 1014.7 1014.7 0.0
27/02:30pm 11.5 4.2 4.5 62 3.2 W 32 44 17 24 1014.0 1014.0 0.0
27/02:00pm 12.7 4.1 4.9 59 3.6 W 39 50 21 27 1013.6 1013.6 0.0
27/01:30pm 11.1 3.2 4.3 63 3.0 W 35 50 19 27 1013.1 1013.1 0.0
27/01:00pm 13.2 6.2 5.9 61 3.4 W 32 48 17 26 1012.8 1012.8 0.0
27/12:30pm 11.7 4.8 4.4 61 3.3 W 30 44 16 24 1013.1 1013.1 0.0
27/12:00pm 11.7 4.2 6.4 70 2.5 W 35 50 19 27 1012.7 1012.7 0.0
27/11:52am 12.3 5.4 6.6 68 2.7 W 32 50 17 27 1012.5 1012.5 0.0
27/11:30am 11.9 6.5 7.8 76 2.0 W 26 37 14 20 1012.6 1012.6 0.0
27/11:00am 11.5 6.6 8.4 81 1.5 WSW 24 35 13 19 1012.4 1012.4 0.0
27/10:30am 11.1 4.6 8.1 82 1.5 W 32 43 17 23 1011.8 1011.8 0.0
27/10:00am 10.5 5.7 7.2 80 1.6 W 22 32 12 17 1011.3 1011.3 0.0
27/09:30am 10.8 6.4 6.6 75 2.0 W 19 28 10 15 1010.4 1010.4 0.0
27/09:00am 10.1 5.9 5.7 74 2.0 WNW 17 22 9 12 1009.8 1009.8 0.0
27/08:30am 9.3 4.9 4.9 74 2.0 W 17 20 9 11 1009.1 1009.1 0.0
27/08:00am 7.1 4.0 3.5 78 1.5 WNW 9 13 5 7 1008.7 1008.7 0.0
27/07:30am 7.9 4.4 3.6 74 1.8 NW 11 13 6 7 1008.1 1008.1 0.0
27/07:00am 8.4 3.8 3.7 72 2.0 WNW 17 22 9 12 1007.6 1007.6 0.0
27/06:30am 7.5 1.4 3.0 73 1.9 WNW 24 28 13 15 1006.8 1006.8 0.0
27/06:00am 7.7 2.5 3.4 74 1.8 WNW 20 22 11 12 1006.4 1006.4 0.0
27/05:30am 6.9 3.0 3.5 79 1.4 W 13 17 7 9 1005.9 1005.9 0.0
27/05:00am 4.4 1.3 1.1 79 1.3 W 7 9 4 5 1005.3 1005.3 0.0
27/04:30am 4.1 0.2 1.1 81 1.2 NNW 11 13 6 7 1004.9 1004.9 0.0
27/04:00am 5.3 1.5 1.8 78 1.4 N 11 15 6 8 1004.6 1004.6 0.0
27/03:30am 6.1 2.7 1.6 73 1.8 NW 9 13 5 7 1004.8 1004.8 0.0
27/03:00am 6.1 4.3 1.2 71 2.0 CALM 0 0 0 0 1004.6 1004.6 0.0
27/02:30am 5.8 2.9 1.5 74 1.7 SSE 6 9 3 5 1005.0 1005.0 0.0
27/02:00am 5.2 1.6 0.6 72 1.8 NNE 9 20 5 11 1005.3 1005.3 0.0
27/01:30am 6.7 3.7 0.8 66 2.3 N 6 9 3 5 1005.5 1005.5 0.0
27/01:00am 8.0 4.9 1.6 64 2.6 WNW 7 9 4 5 1006.0 1006.0 0.0
27/12:30am 8.6 3.6 1.5 61 2.9 NNW 17 28 9 15 1005.7 1005.7 0.0
27/12:00am 7.3 3.9 1.6 67 2.3 N 9 15 5 8 1006.4 1006.4 0.0
 
Date/Time
EST
Temp
°C
App
Temp
°C
Dew
Point
°C
Rel
Hum
%
Delta-T
°C
Wind Press
QNH
hPa
Press
MSL
hPa
Rain since
9am
mm
Dir  Spd
km/h
Gust
km/h
Spd
kts
Gust
kts
26/11:30pm 8.0 4.6 1.6 64 2.6 NNW 9 20 5 11 1006.8 1006.8 0.0
26/11:00pm 7.3 3.9 1.6 67 2.3 NNE 9 15 5 8 1006.8 1006.8 0.0
26/10:30pm 7.3 3.1 1.8 68 2.2 WNW 13 17 7 9 1006.7 1006.7 0.0
26/10:00pm 7.5 4.1 1.6 66 2.4 N 9 15 5 8 1007.1 1007.1 0.0
26/09:30pm 6.7 3.6 1.4 69 2.1 N 7 11 4 6 1007.4 1007.4 0.0
26/09:00pm 8.4 3.0 2.4 66 2.5 NW 20 24 11 13 1007.6 1007.6 0.0
26/08:30pm 8.1 4.7 1.9 65 2.6 NNW 9 15 5 8 1007.6 1007.6 0.0
26/08:00pm 7.4 4.5 1.7 67 2.3 N 6 11 3 6 1008.0 1008.0 0.0
26/07:30pm 6.8 3.7 1.5 69 2.1 NE 7 7 4 4 1008.1 1008.1 0.0
26/07:00pm 7.6 2.6 1.5 65 2.5 NW 17 22 9 12 1008.4 1008.4 0.0
26/06:30pm 7.5 3.3 1.6 66 2.4 NNW 13 19 7 10 1008.6 1008.6 0.0
26/06:00pm 7.8 4.0 1.6 65 2.5 NW 11 13 6 7 1008.5 1008.5 0.0
26/05:30pm 8.1 4.3 1.5 63 2.7 NW 11 15 6 8 1008.4 1008.4 0.0
26/05:00pm 9.4 4.1 1.8 59 3.2 NW 19 28 10 15 1008.2 1008.2 0.0
26/04:30pm 9.9 4.9 1.3 55 3.6 NW 17 24 9 13 1008.4 1008.4 0.0
26/04:00pm 10.1 2.6 1.2 54 3.7 NW 30 39 16 21 1008.9 1008.9 0.0
26/03:30pm 11.2 2.7 1.2 50 4.2 NW 35 48 19 26 1009.0 1009.0 0.0
26/03:13pm 11.5 3.6 1.2 49 4.3 NW 32 50 17 27 1008.9 1008.9 0.0
26/03:00pm 11.6 4.5 1.3 49 4.3 WNW 28 44 15 24 1009.2 1009.2 0.0
26/02:30pm 10.8 4.5 1.4 52 3.9 WNW 24 33 13 18 1009.5 1009.5 0.0
26/02:00pm 10.7 2.9 1.5 53 3.9 NW 32 41 17 22 1009.8 1009.8 0.0
26/01:30pm 10.6 2.2 1.7 54 3.7 NW 35 46 19 25 1010.1 1010.1 0.0
26/01:00pm 10.5 1.7 1.6 54 3.7 NW 37 50 20 27 1010.5 1010.5 0.0
26/12:30pm 11.0 2.7 2.1 54 3.8 NW 35 48 19 26 1011.1 1011.1 0.0
26/12:00pm 10.6 1.0 1.2 52 3.9 NW 41 54 22 29 1011.3 1011.3 0.0
26/11:30am 10.7 2.8 2.0 55 3.7 NW 33 48 18 26 1011.6 1011.6 0.0
26/11:06am 10.5 2.7 1.6 54 3.7 NW 32 50 17 27 1011.7 1011.7 0.0
26/11:00am 10.7 2.4 2.3 56 3.6 NW 35 50 19 27 1011.6 1011.6 0.0
26/10:30am 10.3 2.4 0.9 52 3.9 NW 32 43 17 23 1011.6 1011.6 0.0
26/10:00am 10.6 3.3 2.4 57 3.5 NW 30 39 16 21 1011.2 1011.2 0.0
26/09:30am 10.2 4.0 2.3 58 3.4 NW 24 35 13 19 1011.5 1011.5 0.0
26/09:00am 9.3 3.3 1.2 57 3.3 NW 22 32 12 17 1011.3 1011.3 2.4
26/08:30am 8.7 0.7 0.7 57 3.2 NW 32 43 17 23 1010.6 1010.6 2.4
26/08:12am 8.8 1.1 -0.2 53 3.6 NW 30 48 16 26 1010.6 1010.6 2.4
26/08:00am 9.0 0.3 -0.3 52 3.7 WNW 35 48 19 26 1010.5 1010.5 2.4
26/07:30am 8.1 2.4 0.8 60 2.9 WNW 20 26 11 14 1010.5 1010.5 2.4
26/07:01am 8.1 2.9 0.3 58 3.1 WNW 17 24 9 13 1010.2 1010.2 2.4
26/07:00am 8.1 2.6 0.3 58 3.1 WNW 19 26 10 14 1010.1 1010.1 2.4
26/06:30am 7.6 1.1 0.1 59 2.9 WNW 24 28 13 15 1009.4 1009.4 2.4
26/06:00am 7.8 0.9 0.3 59 3.0 WNW 26 33 14 18 1009.0 1009.0 2.4
26/05:40am 8.1 -0.1 0.3 58 3.1 WNW 33 52 18 28 1008.7 1008.7 2.4
26/05:30am 7.9 -0.3 0.4 59 3.0 WNW 33 44 18 24 1008.4 1008.4 2.4
26/05:11am 8.3 1.0 0.3 57 3.2 WNW 28 48 15 26 1008.3 1008.3 2.4
26/05:00am 8.1 2.0 0.3 58 3.1 WNW 22 39 12 21 1008.4 1008.4 2.4
26/04:30am 6.6 0.8 -0.1 62 2.6 WNW 20 26 11 14 1007.8 1007.8 2.4
26/04:00am 6.7 2.9 -0.5 60 2.8 NNW 9 13 5 7 1007.6 1007.6 2.4
26/03:30am 7.7 2.9 0.0 58 3.0 NW 15 22 8 12 1007.2 1007.2 2.4
26/03:00am 7.9 0.2 -0.1 57 3.1 WNW 30 41 16 22 1007.0 1007.0 2.4
26/02:30am 8.0 -0.2 0.5 59 3.0 WNW 33 50 18 27 1006.9 1006.9 2.4
26/02:23am 8.1 -0.5 0.3 58 3.1 WNW 35 54 19 29 1007.0 1007.0 2.4
26/02:00am 8.1 -1.6 0.6 59 3.0 WNW 41 54 22 29 1006.7 1006.7 2.4
26/01:30am 7.9 -1.3 1.1 62 2.7 W 39 52 21 28 1006.6 1006.6 2.4
26/01:18am 8.1 -1.1 1.3 62 2.8 W 39 57 21 31 1006.4 1006.4 2.4
26/01:00am 7.7 -2.4 1.5 65 2.5 WNW 44 54 24 29 1006.1 1006.1 2.4
26/12:30am 8.0 -1.9 1.4 63 2.7 WNW 43 61 23 33 1005.7 1005.7 2.4
26/12:29am 8.0 -1.9 1.4 63 2.7 WNW 43 61 23 33 1005.8 1005.8 2.4
26/12:00am 8.1 -0.7 1.3 62 2.8 WNW 37 50 20 27 1005.5 1005.5 2.4
 
Date/Time
EST
Temp
°C
App
Temp
°C
Dew
Point
°C
Rel
Hum
%
Delta-T
°C
Wind Press
QNH
hPa
Press
MSL
hPa
Rain since
9am
mm
Dir  Spd
km/h
Gust
km/h
Spd
kts
Gust
kts
25/11:30pm 7.7 -1.5 1.5 65 2.5 WNW 39 48 21 26 1005.1 1005.1 2.4
25/11:23pm 7.9 -2.0 1.5 64 2.6 WNW 43 57 23 31 1005.0 1005.0 2.4
25/11:00pm 8.7 -3.9 1.4 60 3.0 WNW 57 78 31 42 1004.7 1004.7 2.4
25/10:48pm 8.9 -1.8 2.3 63 2.8 W 48 74 26 40 1004.7 1004.7 2.4
25/10:30pm 7.9 -2.2 3.6 74 1.8 W 46 61 25 33 1004.7 1004.7 2.4

Other Formats:

Comma delimited format used in spreadsheet applications
http://www.bom.gov.au/fwo/IDV60801/IDV60801.94907.axf

JavaScript Object Notation format (JSON) in row-major order
http://www.bom.gov.au/fwo/IDV60801/IDV60801.94907.json